createdAt,value
2023-05-05T00:01:55.396Z,10.93
2023-05-05T00:04:22.874Z,8.93
2023-05-05T00:06:50.923Z,13.65
2023-05-05T00:09:18.360Z,9.45
2023-05-05T00:11:45.373Z,12.32
2023-05-05T00:14:12.126Z,13.32
2023-05-05T00:16:39.240Z,9.82
2023-05-05T00:19:06.758Z,10.45
2023-05-05T00:21:33.812Z,10.55
2023-05-05T00:24:00.774Z,10.40
2023-05-05T00:26:27.849Z,14.93
2023-05-05T00:28:54.564Z,10.90
2023-05-05T00:31:21.696Z,10.63
2023-05-05T00:33:48.542Z,11.00
2023-05-05T00:36:15.553Z,12.13
2023-05-05T00:38:42.390Z,12.00
2023-05-05T00:41:09.560Z,13.02
2023-05-05T00:43:36.438Z,12.88
2023-05-05T00:46:28.252Z,9.40
2023-05-05T00:48:55.470Z,13.90
2023-05-05T00:51:23.010Z,12.18
2023-05-05T00:53:50.166Z,12.57
2023-05-05T00:56:19.527Z,10.57
2023-05-05T00:58:46.852Z,10.57
2023-05-05T01:01:14.660Z,11.88
2023-05-05T01:03:41.797Z,16.98
2023-05-05T01:06:20.950Z,14.65
2023-05-05T01:09:24.087Z,11.10
2023-05-05T01:12:39.222Z,11.80
2023-05-05T01:17:50.859Z,10.18
2023-05-05T01:20:40.436Z,9.27
2023-05-05T01:23:10.012Z,11.80
2023-05-05T01:25:57.014Z,12.63
2023-05-05T01:28:29.940Z,12.05
2023-05-05T01:31:15.362Z,13.95
2023-05-05T01:34:06.207Z,14.05
2023-05-05T01:36:38.122Z,10.77
2023-05-05T01:39:09.340Z,11.23
2023-05-05T01:41:43.133Z,13.07
2023-05-05T01:44:13.569Z,12.20
2023-05-05T01:46:40.599Z,12.85
2023-05-05T01:49:10.068Z,9.77
2023-05-05T01:51:38.988Z,10.88
2023-05-05T01:54:08.462Z,12.30
2023-05-05T01:56:38.796Z,10.52
2023-05-05T01:59:14.469Z,10.30
2023-05-05T02:01:44.754Z,10.55
2023-05-05T02:04:14.422Z,10.27
2023-05-05T02:06:43.107Z,10.45
2023-05-05T02:09:13.036Z,10.60
2023-05-05T02:11:40.857Z,9.68
2023-05-05T02:14:09.130Z,9.77
2023-05-05T02:16:38.060Z,9.48
2023-05-05T02:19:05.960Z,11.27
2023-05-05T02:21:34.149Z,10.45
2023-05-05T02:24:01.812Z,14.52
2023-05-05T02:26:32.110Z,11.15
2023-05-05T02:29:05.739Z,13.95
2023-05-05T02:31:38.413Z,11.48
2023-05-05T02:34:08.089Z,9.70
2023-05-05T02:36:38.641Z,14.45
2023-05-05T02:39:26.454Z,10.73
2023-05-05T02:41:55.437Z,11.20
2023-05-05T02:44:24.913Z,8.77
2023-05-05T02:46:52.110Z,11.20
2023-05-05T02:49:19.710Z,10.82
2023-05-05T02:51:46.454Z,9.45
2023-05-05T02:54:13.712Z,9.38
2023-05-05T02:56:51.040Z,12.30
2023-05-05T02:59:56.875Z,8.35
2023-05-05T03:02:55.923Z,11.00
2023-05-05T03:05:25.351Z,9.95
2023-05-05T03:07:59.707Z,11.18
2023-05-05T03:10:31.227Z,10.65
2023-05-05T03:15:32.060Z,9.13
2023-05-05T03:18:00.475Z,10.77
2023-05-05T03:20:28.796Z,13.07
2023-05-05T03:22:55.669Z,12.15
2023-05-05T03:25:22.917Z,10.00
2023-05-05T03:27:49.656Z,10.00
2023-05-05T03:30:16.722Z,13.98
2023-05-05T03:32:43.498Z,12.20
2023-05-05T03:35:10.653Z,14.63
2023-05-05T03:37:37.481Z,13.60
2023-05-05T03:40:04.987Z,11.75
2023-05-05T03:42:31.874Z,8.98
2023-05-05T03:44:58.984Z,12.40
2023-05-05T03:47:25.802Z,9.00
2023-05-05T03:49:55.174Z,11.48
2023-05-05T03:52:21.954Z,10.95
2023-05-05T03:54:48.969Z,10.63
2023-05-05T03:57:16.212Z,10.00
2023-05-05T03:59:43.467Z,11.82
2023-05-05T04:02:10.214Z,9.63
2023-05-05T04:04:37.254Z,11.93
2023-05-05T04:07:04.190Z,9.93
2023-05-05T04:09:31.500Z,13.40
2023-05-05T04:11:58.254Z,9.02
2023-05-05T04:14:25.387Z,10.35
2023-05-05T04:16:52.158Z,9.20
2023-05-05T04:19:19.205Z,16.25
2023-05-05T04:21:46.013Z,11.75
2023-05-05T04:24:12.989Z,15.10
2023-05-05T04:26:39.829Z,11.00
2023-05-05T04:29:06.891Z,9.55
2023-05-05T04:31:33.795Z,10.93
2023-05-05T04:34:00.877Z,14.27
2023-05-05T04:36:27.661Z,14.73
2023-05-05T04:38:54.633Z,12.23
2023-05-05T04:41:21.493Z,13.35
2023-05-05T04:43:48.673Z,15.85
2023-05-05T04:46:15.581Z,15.57
2023-05-05T04:48:42.576Z,19.55
2023-05-05T04:51:09.423Z,14.32
2023-05-05T04:53:36.655Z,12.68
2023-05-05T04:56:03.689Z,13.68
2023-05-05T04:58:31.271Z,13.63
2023-05-05T05:00:58.120Z,15.52
2023-05-05T05:03:25.450Z,15.50
2023-05-05T05:05:52.404Z,22.40
2023-05-05T05:08:19.660Z,15.27
2023-05-05T05:10:46.448Z,21.77
2023-05-05T05:13:13.740Z,22.17
2023-05-05T05:15:40.996Z,23.77
2023-05-05T05:18:08.191Z,22.88
2023-05-05T05:20:34.991Z,18.02
2023-05-05T05:23:02.454Z,20.83
2023-05-05T05:25:29.352Z,19.58
2023-05-05T05:28:10.186Z,19.67
2023-05-05T05:30:37.649Z,20.60
2023-05-05T05:33:04.874Z,18.10
2023-05-05T05:35:31.696Z,17.25
2023-05-05T05:37:58.698Z,20.67
2023-05-05T05:40:25.564Z,17.15
2023-05-05T05:42:52.605Z,16.40
2023-05-05T05:45:19.483Z,18.08
2023-05-05T05:47:46.635Z,16.65
2023-05-05T05:50:13.924Z,27.88
2023-05-05T05:52:41.179Z,16.75
2023-05-05T05:55:08.455Z,18.42
2023-05-05T05:57:35.605Z,18.25
2023-05-05T06:00:46.460Z,15.77
2023-05-05T06:03:24.767Z,13.85
2023-05-05T06:05:51.793Z,17.40
2023-05-05T06:08:18.855Z,9.93
2023-05-05T06:10:47.289Z,10.98
2023-05-05T06:13:14.488Z,9.68
2023-05-05T06:15:41.358Z,8.85
2023-05-05T06:18:08.450Z,11.05
2023-05-05T06:20:38.175Z,7.60
2023-05-05T06:23:05.642Z,10.30
2023-05-05T06:25:32.649Z,8.80
2023-05-05T06:28:00.155Z,9.50
2023-05-05T06:30:27.044Z,8.95
2023-05-05T06:32:54.465Z,11.52
2023-05-05T06:35:22.490Z,8.32
2023-05-05T06:37:49.710Z,9.68
2023-05-05T06:40:16.814Z,8.35
2023-05-05T06:42:43.973Z,9.43
2023-05-05T06:45:11.205Z,7.93
2023-05-05T06:47:38.352Z,9.32
2023-05-05T06:50:06.797Z,11.68
2023-05-05T06:52:34.372Z,8.57
2023-05-05T06:55:01.581Z,6.53
2023-05-05T06:57:28.759Z,5.45
2023-05-05T06:59:55.499Z,7.10
2023-05-05T07:02:23.514Z,7.35
2023-05-05T07:04:51.629Z,7.65
2023-05-05T07:07:19.006Z,7.90
2023-05-05T07:09:46.529Z,6.57
2023-05-05T07:12:16.776Z,11.93
2023-05-05T07:14:44.760Z,8.18
2023-05-05T07:17:12.166Z,10.05
2023-05-05T07:19:38.995Z,8.82
2023-05-05T07:22:06.410Z,8.88
2023-05-05T07:24:33.213Z,7.20
2023-05-05T07:27:00.614Z,6.13
2023-05-05T07:29:27.853Z,9.75
2023-05-05T07:31:55.118Z,8.50
2023-05-05T07:34:22.058Z,7.63
2023-05-05T07:36:49.245Z,6.65
2023-05-05T07:39:16.044Z,6.68
2023-05-05T07:41:43.438Z,8.85
2023-05-05T07:44:11.779Z,7.95
2023-05-05T07:46:38.787Z,4.55
2023-05-05T07:49:06.661Z,6.82
2023-05-05T07:51:34.901Z,7.03
2023-05-05T07:54:02.227Z,7.00
2023-05-05T07:56:29.378Z,3.97
2023-05-05T07:58:56.306Z,8.13
2023-05-05T08:01:23.424Z,4.88
2023-05-05T08:03:50.584Z,8.18
2023-05-05T08:06:22.366Z,4.95
2023-05-05T08:08:49.839Z,5.30
2023-05-05T08:11:18.094Z,6.53
2023-05-05T08:13:45.690Z,8.25
2023-05-05T08:16:14.334Z,6.28
2023-05-05T08:18:41.360Z,8.25
2023-05-05T08:21:09.353Z,5.68
2023-05-05T08:23:39.213Z,6.82
2023-05-05T08:26:06.961Z,4.55
2023-05-05T08:28:36.492Z,4.18
2023-05-05T08:31:06.998Z,4.75
2023-05-05T08:33:34.045Z,6.95
2023-05-05T08:36:01.268Z,6.45
2023-05-05T08:38:28.305Z,11.45
2023-05-05T08:40:55.355Z,6.07
2023-05-05T08:43:23.925Z,5.13
2023-05-05T08:45:51.818Z,7.03
2023-05-05T08:48:22.994Z,7.80
2023-05-05T08:50:59.964Z,7.25
2023-05-05T08:53:56.017Z,6.78
2023-05-05T08:56:27.308Z,6.18
2023-05-05T08:58:54.802Z,6.43
2023-05-05T09:01:22.872Z,7.03
2023-05-05T09:03:50.156Z,7.88
2023-05-05T09:06:17.429Z,6.28
2023-05-05T09:08:44.636Z,4.95
2023-05-05T09:11:12.981Z,10.25
2023-05-05T09:13:39.839Z,5.78
2023-05-05T09:16:15.470Z,5.85
2023-05-05T09:18:42.802Z,7.13
2023-05-05T09:21:24.908Z,8.02
2023-05-05T09:24:12.965Z,6.75
2023-05-05T09:26:45.345Z,5.50
2023-05-05T09:29:22.923Z,8.13
2023-05-05T09:32:08.541Z,5.28
2023-05-05T09:34:36.166Z,5.68
2023-05-05T09:37:03.830Z,4.40
2023-05-05T09:39:30.844Z,6.50
2023-05-05T09:41:58.662Z,6.60
2023-05-05T09:44:36.787Z,6.15
2023-05-05T09:47:07.208Z,5.88
2023-05-05T09:49:39.191Z,8.93
2023-05-05T09:52:16.442Z,6.70
2023-05-05T09:54:44.442Z,9.23
2023-05-05T09:57:33.429Z,7.45
2023-05-05T10:00:02.370Z,11.80
2023-05-05T10:02:37.913Z,7.43
2023-05-05T10:05:30.830Z,8.63
2023-05-05T10:08:18.993Z,6.18
2023-05-05T10:11:11.961Z,6.95
2023-05-05T10:13:42.088Z,8.00
2023-05-05T10:16:10.930Z,5.47
2023-05-05T10:18:43.426Z,7.40
2023-05-05T10:21:12.857Z,8.25
2023-05-05T10:24:08.158Z,5.90
2023-05-05T10:26:40.778Z,5.72
2023-05-05T10:29:26.116Z,6.03
2023-05-05T10:31:54.102Z,5.72
2023-05-05T10:34:27.323Z,6.82
2023-05-05T10:36:55.225Z,4.63
2023-05-05T10:39:23.816Z,7.70
2023-05-05T10:41:52.310Z,4.15
2023-05-05T10:44:19.912Z,4.93
2023-05-05T10:46:47.418Z,4.03
2023-05-05T10:49:37.837Z,5.45
2023-05-05T10:52:36.298Z,5.85
2023-05-05T10:55:09.412Z,4.88
2023-05-05T10:57:40.971Z,6.75
2023-05-05T11:00:09.599Z,5.57
2023-05-05T11:02:37.373Z,5.78
2023-05-05T11:05:10.778Z,6.72
2023-05-05T11:07:38.107Z,5.47
2023-05-05T11:10:07.199Z,5.85
2023-05-05T11:12:54.322Z,5.68
2023-05-05T11:15:24.209Z,6.40
2023-05-05T11:17:51.276Z,6.78
2023-05-05T11:20:40.116Z,5.97
2023-05-05T11:23:07.006Z,6.00
2023-05-05T11:25:41.280Z,5.97
2023-05-05T11:28:11.501Z,5.63
2023-05-05T11:30:58.100Z,5.15
2023-05-05T11:33:32.125Z,6.40
2023-05-05T11:36:01.782Z,4.25
2023-05-05T11:38:41.477Z,8.40
2023-05-05T11:41:16.770Z,5.00
2023-05-05T11:43:43.662Z,6.30
2023-05-05T11:46:15.552Z,4.32
2023-05-05T11:48:46.708Z,6.57
2023-05-05T11:51:14.783Z,5.03
2023-05-05T11:53:48.192Z,5.78
2023-05-05T11:56:19.271Z,4.65
2023-05-05T11:58:47.165Z,5.50
2023-05-05T12:01:14.951Z,5.70
2023-05-05T12:03:42.208Z,9.38
2023-05-05T12:06:09.416Z,10.00
2023-05-05T12:08:37.120Z,9.30
2023-05-05T12:11:07.070Z,7.03
2023-05-05T12:13:34.002Z,5.97
2023-05-05T12:16:16.761Z,5.95
2023-05-05T12:18:43.799Z,4.68
2023-05-05T12:21:17.790Z,6.85
2023-05-05T12:23:45.045Z,8.73
2023-05-05T12:26:31.225Z,4.97
2023-05-05T12:28:59.018Z,4.43
2023-05-05T12:31:36.796Z,5.07
2023-05-05T12:34:08.557Z,12.52
2023-05-05T12:36:36.760Z,4.20
2023-05-05T12:39:07.563Z,4.78
2023-05-05T12:42:03.246Z,5.30
2023-05-05T12:44:37.223Z,5.25
2023-05-05T12:47:05.033Z,5.28
2023-05-05T12:49:35.055Z,5.60
2023-05-05T12:52:02.137Z,5.50
2023-05-05T12:54:31.744Z,5.55
2023-05-05T12:56:59.352Z,5.07
2023-05-05T12:59:26.055Z,9.18
2023-05-05T13:01:57.594Z,4.15
2023-05-05T13:04:25.923Z,4.72
2023-05-05T13:07:13.652Z,7.28
2023-05-05T13:09:40.839Z,5.45
2023-05-05T13:12:14.348Z,6.10
2023-05-05T13:14:41.924Z,4.85
2023-05-05T13:17:09.824Z,6.10
2023-05-05T13:19:42.055Z,7.13
2023-05-05T13:22:13.083Z,4.05
2023-05-05T13:24:50.545Z,4.57
2023-05-05T13:27:18.465Z,6.20
2023-05-05T13:29:45.495Z,6.25
2023-05-05T13:32:12.518Z,6.40
2023-05-05T13:34:39.591Z,4.05
2023-05-05T13:37:07.334Z,3.97
2023-05-05T13:39:34.192Z,5.97
2023-05-05T13:42:01.332Z,5.22
2023-05-05T13:44:28.210Z,5.82
2023-05-05T13:46:55.298Z,8.68
2023-05-05T13:49:22.017Z,5.03
2023-05-05T13:51:49.035Z,4.30
2023-05-05T13:54:15.801Z,5.30
2023-05-05T13:56:43.927Z,6.35
2023-05-05T13:59:10.807Z,4.40
2023-05-05T14:01:38.065Z,6.35
2023-05-05T14:04:05.842Z,4.68
2023-05-05T14:06:33.868Z,4.10
2023-05-05T14:09:00.909Z,8.40
2023-05-05T14:11:28.046Z,4.30
2023-05-05T14:13:54.789Z,4.18
2023-05-05T14:16:21.827Z,4.30
2023-05-05T14:18:48.685Z,4.82
2023-05-05T14:21:15.793Z,4.45
2023-05-05T14:23:42.625Z,4.45
2023-05-05T14:26:09.702Z,5.15
2023-05-05T14:28:36.429Z,5.82
2023-05-05T14:31:03.497Z,5.72
2023-05-05T14:33:30.346Z,3.80
2023-05-05T14:35:57.511Z,6.78
2023-05-05T14:38:24.349Z,11.15
2023-05-05T14:40:51.504Z,5.30
2023-05-05T14:43:18.411Z,4.63
2023-05-05T14:45:45.730Z,8.75
2023-05-05T14:48:12.694Z,3.95
2023-05-05T14:50:42.239Z,5.55
2023-05-05T14:53:09.104Z,6.68
2023-05-05T14:55:36.365Z,8.10
2023-05-05T14:58:03.223Z,13.98
2023-05-05T15:00:30.905Z,7.63
2023-05-05T15:02:57.816Z,5.15
2023-05-05T15:05:24.963Z,6.38
2023-05-05T15:07:51.864Z,4.80
2023-05-05T15:10:21.724Z,4.03
2023-05-05T15:12:48.851Z,3.95
2023-05-05T15:15:15.981Z,5.68
2023-05-05T15:17:43.299Z,4.15
2023-05-05T15:20:11.186Z,4.60
2023-05-05T15:22:37.990Z,3.95
2023-05-05T15:25:09.055Z,5.70
2023-05-05T15:27:38.048Z,4.57
2023-05-05T15:30:06.705Z,4.60
2023-05-05T15:32:33.687Z,4.03
2023-05-05T15:35:00.922Z,3.78
2023-05-05T15:37:28.970Z,3.85
2023-05-05T15:39:57.112Z,4.50
2023-05-05T15:42:24.151Z,5.45
2023-05-05T15:45:08.308Z,6.18
2023-05-05T15:47:35.236Z,8.18
2023-05-05T15:50:02.414Z,9.52
2023-05-05T15:52:29.193Z,7.93
2023-05-05T15:54:56.354Z,6.03
2023-05-05T15:57:23.148Z,9.80
2023-05-05T15:59:54.357Z,6.85
2023-05-05T16:02:22.131Z,9.05
2023-05-05T16:04:49.202Z,5.50
2023-05-05T16:07:17.441Z,4.00
2023-05-05T16:09:44.603Z,4.40
2023-05-05T16:12:11.693Z,4.07
2023-05-05T16:14:38.818Z,7.28
2023-05-05T16:17:06.101Z,3.55
2023-05-05T16:19:33.612Z,4.68
2023-05-05T16:22:00.862Z,5.40
2023-05-05T16:24:27.926Z,4.28
2023-05-05T16:26:54.850Z,6.40
2023-05-05T16:29:22.549Z,5.03
2023-05-05T16:31:49.614Z,4.22
2023-05-05T16:34:17.171Z,4.50
2023-05-05T16:36:44.576Z,6.28
2023-05-05T16:39:12.039Z,4.03
2023-05-05T16:41:38.866Z,5.93
2023-05-05T16:44:06.362Z,4.88
2023-05-05T16:46:41.147Z,4.43
2023-05-05T16:49:08.620Z,4.35
2023-05-05T16:51:35.503Z,4.30
2023-05-05T16:54:02.579Z,3.50
2023-05-05T16:56:29.489Z,6.53
2023-05-05T16:58:56.914Z,5.22
2023-05-05T17:01:24.143Z,4.50
2023-05-05T17:03:51.326Z,3.95
2023-05-05T17:06:18.155Z,4.72
2023-05-05T17:08:45.241Z,3.80
2023-05-05T17:11:12.533Z,6.22
2023-05-05T17:13:39.728Z,6.03
2023-05-05T17:16:06.832Z,6.68
2023-05-05T17:18:34.176Z,5.13
2023-05-05T17:21:01.257Z,5.55
2023-05-05T17:23:28.565Z,6.78
2023-05-05T17:25:55.626Z,6.15
2023-05-05T17:28:22.670Z,5.47
2023-05-05T17:30:49.461Z,4.68
2023-05-05T17:33:20.909Z,5.75
2023-05-05T17:35:48.417Z,3.90
2023-05-05T17:38:24.618Z,5.22
2023-05-05T17:40:51.328Z,7.30
2023-05-05T17:43:18.409Z,4.22
2023-05-05T17:45:46.831Z,6.07
2023-05-05T17:48:14.034Z,6.35
2023-05-05T17:50:42.690Z,4.53
2023-05-05T17:53:10.981Z,4.63
2023-05-05T17:55:37.957Z,6.45
2023-05-05T17:58:05.196Z,6.32
2023-05-05T18:00:32.040Z,6.20
2023-05-05T18:03:01.108Z,11.68
2023-05-05T18:05:28.126Z,6.38
2023-05-05T18:07:55.195Z,5.63
2023-05-05T18:10:21.945Z,6.75
2023-05-05T18:12:49.120Z,6.18
2023-05-05T18:15:15.970Z,8.00
2023-05-05T18:17:43.564Z,5.40
2023-05-05T18:20:10.893Z,5.75
2023-05-05T18:22:38.060Z,5.93
2023-05-05T18:25:07.876Z,6.47
2023-05-05T18:27:36.139Z,6.95
2023-05-05T18:30:05.012Z,5.93
2023-05-05T18:32:32.811Z,7.50
2023-05-05T18:34:59.590Z,7.30
2023-05-05T18:37:26.569Z,7.00
2023-05-05T18:39:53.581Z,6.75
2023-05-05T18:42:20.894Z,7.72
2023-05-05T18:44:47.695Z,20.58
2023-05-05T18:47:14.742Z,13.52
2023-05-05T18:49:41.612Z,14.77
2023-05-05T18:52:08.754Z,12.43
2023-05-05T18:54:37.792Z,19.20
2023-05-05T18:57:05.657Z,45.10
2023-05-05T18:59:32.426Z,32.38
2023-05-05T19:01:59.604Z,43.30
2023-05-05T19:04:31.348Z,30.10
2023-05-05T19:06:59.940Z,34.15
2023-05-05T19:09:27.043Z,41.28
2023-05-05T19:11:54.210Z,36.17
2023-05-05T19:14:21.064Z,27.40
2023-05-05T19:16:48.259Z,23.48
2023-05-05T19:19:15.089Z,26.35
2023-05-05T19:21:41.860Z,17.92
2023-05-05T19:24:09.780Z,19.58
2023-05-05T19:26:36.748Z,18.42
2023-05-05T19:29:03.837Z,20.33
2023-05-05T19:31:31.458Z,21.38
2023-05-05T19:34:03.948Z,20.30
2023-05-05T19:36:31.992Z,17.23
2023-05-05T19:39:01.742Z,19.35
2023-05-05T19:41:31.757Z,19.45
2023-05-05T19:43:58.918Z,20.77
2023-05-05T19:46:26.553Z,22.45
2023-05-05T19:48:53.962Z,26.67
2023-05-05T19:51:21.194Z,34.30
2023-05-05T19:53:48.489Z,35.70
2023-05-05T19:56:17.013Z,37.33
2023-05-05T19:59:01.551Z,38.15
2023-05-05T20:01:29.328Z,23.83
2023-05-05T20:03:57.352Z,20.42
2023-05-05T20:06:24.613Z,21.27
2023-05-05T20:08:52.469Z,17.40
2023-05-05T20:11:20.188Z,16.05
2023-05-05T20:13:48.029Z,13.15
2023-05-05T20:16:15.065Z,11.50
2023-05-05T20:18:42.229Z,10.10
2023-05-05T20:21:09.077Z,12.40
2023-05-05T20:23:36.844Z,13.13
2023-05-05T20:26:03.773Z,10.60
2023-05-05T20:28:34.219Z,13.35
2023-05-05T20:31:01.155Z,11.57
2023-05-05T20:33:29.128Z,13.63
2023-05-05T20:35:56.296Z,13.27
2023-05-05T20:38:23.582Z,10.38
2023-05-05T20:40:50.865Z,10.10
2023-05-05T20:43:18.368Z,12.35
2023-05-05T20:45:45.400Z,9.45
2023-05-05T20:48:12.462Z,11.88
2023-05-05T20:50:40.778Z,14.25
2023-05-05T20:53:09.161Z,9.60
2023-05-05T20:55:36.181Z,11.50
2023-05-05T20:58:05.245Z,11.77
2023-05-05T21:00:32.554Z,10.93
2023-05-05T21:02:59.955Z,10.80
2023-05-05T21:05:26.873Z,12.88
2023-05-05T21:07:54.636Z,12.00
2023-05-05T21:10:21.573Z,9.73
2023-05-05T21:12:48.824Z,9.18
2023-05-05T21:15:16.922Z,8.05
2023-05-05T21:17:44.149Z,6.85
2023-05-05T21:20:11.792Z,9.63
2023-05-05T21:22:39.254Z,8.52
2023-05-05T21:25:19.077Z,7.43
2023-05-05T21:27:49.820Z,4.88
2023-05-05T21:30:17.501Z,6.50
2023-05-05T21:32:45.009Z,10.00
2023-05-05T21:35:12.039Z,6.15
2023-05-05T21:37:39.734Z,6.18
2023-05-05T21:40:13.769Z,6.35
2023-05-05T21:42:42.295Z,6.18
2023-05-05T21:45:10.656Z,8.50
2023-05-05T21:47:38.234Z,7.15
2023-05-05T21:50:05.728Z,7.82
2023-05-05T21:52:32.836Z,6.93
2023-05-05T21:54:59.706Z,6.43
2023-05-05T21:57:26.875Z,8.98
2023-05-05T21:59:53.663Z,5.93
2023-05-05T22:02:20.932Z,7.88
2023-05-05T22:04:51.138Z,9.18
2023-05-05T22:07:18.534Z,8.80
2023-05-05T22:09:45.998Z,9.93
2023-05-05T22:12:13.332Z,9.43
2023-05-05T22:14:40.375Z,9.55
2023-05-05T22:17:07.539Z,8.77
2023-05-05T22:19:34.336Z,9.60
2023-05-05T22:22:01.508Z,8.80
2023-05-05T22:24:28.504Z,10.13
2023-05-05T22:26:57.361Z,8.82
2023-05-05T22:29:25.426Z,9.68
2023-05-05T22:31:52.795Z,8.30
2023-05-05T22:34:21.727Z,6.70
2023-05-05T22:36:49.186Z,8.75
2023-05-05T22:39:16.085Z,10.05
2023-05-05T22:41:43.145Z,8.18
2023-05-05T22:44:09.993Z,8.90
2023-05-05T22:46:37.178Z,7.93
2023-05-05T22:49:04.156Z,7.03
2023-05-05T22:51:31.905Z,8.80
2023-05-05T22:53:58.690Z,8.20
2023-05-05T22:56:26.246Z,6.97
2023-05-05T22:58:53.180Z,8.02
2023-05-05T23:01:20.489Z,10.23
2023-05-05T23:03:47.707Z,6.93
2023-05-05T23:06:14.917Z,8.85
2023-05-05T23:08:42.094Z,7.15
2023-05-05T23:11:09.176Z,8.43
2023-05-05T23:13:36.058Z,6.97
2023-05-05T23:16:03.159Z,12.23
2023-05-05T23:18:29.909Z,8.70
2023-05-05T23:20:56.969Z,9.35
2023-05-05T23:23:24.777Z,9.98
2023-05-05T23:25:52.005Z,6.82
2023-05-05T23:28:20.193Z,8.55
2023-05-05T23:30:47.289Z,11.38
2023-05-05T23:33:14.038Z,11.13
2023-05-05T23:35:43.507Z,6.90
2023-05-05T23:38:10.424Z,6.70
2023-05-05T23:40:37.507Z,6.35
2023-05-05T23:43:04.436Z,6.13
2023-05-05T23:45:31.635Z,5.32
2023-05-05T23:47:58.569Z,10.48
2023-05-05T23:50:25.940Z,8.18
2023-05-05T23:52:52.765Z,10.10
2023-05-05T23:55:19.793Z,8.40
2023-05-05T23:57:46.620Z,9.40
